sensor_id;sensor_type;location;lat;lon;timestamp;pressure;altitude;pressure_sealevel;temperature;humidity
6345;BME280;3205;42.666;23.264;2023-04-04T00:00:18;92856.94;;;7.79;100.00
6345;BME280;3205;42.666;23.264;2023-04-04T00:02:45;92845.16;;;7.69;100.00
6345;BME280;3205;42.666;23.264;2023-04-04T00:05:11;92843.38;;;7.77;100.00
6345;BME280;3205;42.666;23.264;2023-04-04T00:07:37;92848.16;;;7.71;100.00
6345;BME280;3205;42.666;23.264;2023-04-04T00:10:04;92852.13;;;7.84;100.00
6345;BME280;3205;42.666;23.264;2023-04-04T00:12:31;92850.59;;;7.83;100.00
6345;BME280;3205;42.666;23.264;2023-04-04T00:14:57;92855.22;;;7.90;100.00
6345;BME280;3205;42.666;23.264;2023-04-04T00:17:23;92858.09;;;7.81;100.00
6345;BME280;3205;42.666;23.264;2023-04-04T00:19:49;92855.41;;;7.78;100.00
6345;BME280;3205;42.666;23.264;2023-04-04T00:22:16;92846.06;;;7.80;100.00
6345;BME280;3205;42.666;23.264;2023-04-04T00:24:43;92853.53;;;7.78;100.00
6345;BME280;3205;42.666;23.264;2023-04-04T00:27:10;92850.59;;;7.83;100.00
6345;BME280;3205;42.666;23.264;2023-04-04T00:29:36;92840.84;;;7.84;100.00
6345;BME280;3205;42.666;23.264;2023-04-04T00:32:02;92840.19;;;7.90;100.00
6345;BME280;3205;42.666;23.264;2023-04-04T00:34:28;92837.69;;;7.97;100.00
6345;BME280;3205;42.666;23.264;2023-04-04T00:36:54;92843.34;;;7.99;100.00
6345;BME280;3205;42.666;23.264;2023-04-04T00:39:20;92833.56;;;7.96;100.00
6345;BME280;3205;42.666;23.264;2023-04-04T00:41:48;92832.13;;;8.02;100.00
6345;BME280;3205;42.666;23.264;2023-04-04T00:44:15;92829.13;;;8.04;100.00
6345;BME280;3205;42.666;23.264;2023-04-04T00:46:41;92825.66;;;7.96;100.00
6345;BME280;3205;42.666;23.264;2023-04-04T00:49:07;92826.81;;;7.99;100.00
6345;BME280;3205;42.666;23.264;2023-04-04T00:51:36;92821.63;;;8.02;100.00
6345;BME280;3205;42.666;23.264;2023-04-04T00:54:02;92820.78;;;7.98;100.00
6345;BME280;3205;42.666;23.264;2023-04-04T00:56:29;92822.34;;;8.03;100.00
6345;BME280;3205;42.666;23.264;2023-04-04T00:58:57;92825.75;;;8.03;100.00
6345;BME280;3205;42.666;23.264;2023-04-04T01:01:25;92828.44;;;8.07;100.00
6345;BME280;3205;42.666;23.264;2023-04-04T01:03:52;92835.25;;;8.11;100.00
6345;BME280;3205;42.666;23.264;2023-04-04T01:06:19;92842.81;;;8.12;100.00
6345;BME280;3205;42.666;23.264;2023-04-04T01:08:45;92850.91;;;8.23;100.00
6345;BME280;3205;42.666;23.264;2023-04-04T01:11:12;92851.59;;;8.20;100.00
6345;BME280;3205;42.666;23.264;2023-04-04T01:13:38;92858.31;;;8.17;100.00
6345;BME280;3205;42.666;23.264;2023-04-04T01:16:05;92855.69;;;8.17;100.00
6345;BME280;3205;42.666;23.264;2023-04-04T01:18:33;92851.34;;;8.28;100.00
6345;BME280;3205;42.666;23.264;2023-04-04T01:21:02;92856.59;;;8.28;100.00
6345;BME280;3205;42.666;23.264;2023-04-04T01:23:35;92846.16;;;8.35;100.00
6345;BME280;3205;42.666;23.264;2023-04-04T01:26:09;92851.53;;;8.42;100.00
6345;BME280;3205;42.666;23.264;2023-04-04T01:28:35;92838.00;;;8.40;100.00
6345;BME280;3205;42.666;23.264;2023-04-04T01:31:01;92850.44;;;8.43;100.00
6345;BME280;3205;42.666;23.264;2023-04-04T01:33:36;92843.50;;;8.58;100.00
6345;BME280;3205;42.666;23.264;2023-04-04T01:36:11;92835.97;;;8.60;100.00
6345;BME280;3205;42.666;23.264;2023-04-04T01:38:45;92832.50;;;8.52;100.00
6345;BME280;3205;42.666;23.264;2023-04-04T01:41:18;92839.34;;;8.57;100.00
6345;BME280;3205;42.666;23.264;2023-04-04T01:43:45;92830.28;;;8.54;100.00
6345;BME280;3205;42.666;23.264;2023-04-04T01:46:12;92820.03;;;8.49;100.00
6345;BME280;3205;42.666;23.264;2023-04-04T01:48:38;92817.25;;;8.39;100.00
6345;BME280;3205;42.666;23.264;2023-04-04T01:51:04;92811.31;;;8.42;100.00
6345;BME280;3205;42.666;23.264;2023-04-04T01:53:30;92802.50;;;8.31;100.00
6345;BME280;3205;42.666;23.264;2023-04-04T01:55:57;92805.13;;;8.31;100.00
6345;BME280;3205;42.666;23.264;2023-04-04T01:58:23;92803.25;;;8.31;100.00
6345;BME280;3205;42.666;23.264;2023-04-04T02:00:50;92795.00;;;8.33;100.00
6345;BME280;3205;42.666;23.264;2023-04-04T02:03:16;92800.00;;;8.41;100.00
6345;BME280;3205;42.666;23.264;2023-04-04T02:05:42;92800.81;;;8.45;100.00
6345;BME280;3205;42.666;23.264;2023-04-04T02:08:08;92814.41;;;8.47;100.00
6345;BME280;3205;42.666;23.264;2023-04-04T02:10:34;92810.47;;;8.38;100.00
6345;BME280;3205;42.666;23.264;2023-04-04T02:13:01;92806.81;;;8.16;100.00
6345;BME280;3205;42.666;23.264;2023-04-04T02:15:27;92796.47;;;8.05;100.00
6345;BME280;3205;42.666;23.264;2023-04-04T02:17:53;92796.19;;;7.87;100.00
6345;BME280;3205;42.666;23.264;2023-04-04T02:20:19;92798.00;;;7.83;100.00
6345;BME280;3205;42.666;23.264;2023-04-04T02:22:51;92855.38;;;7.74;nan
6345;BME280;3205;42.666;23.264;2023-04-04T02:25:18;92855.88;;;7.61;nan
6345;BME280;3205;42.666;23.264;2023-04-04T02:27:44;92817.47;;;7.56;nan
6345;BME280;3205;42.666;23.264;2023-04-04T02:30:11;92838.19;;;7.58;nan
6345;BME280;3205;42.666;23.264;2023-04-04T02:32:38;92839.59;;;7.52;nan
6345;BME280;3205;42.666;23.264;2023-04-04T02:35:05;92800.53;;;7.54;nan
6345;BME280;3205;42.666;23.264;2023-04-04T02:37:31;92815.16;;;7.51;nan
6345;BME280;3205;42.666;23.264;2023-04-04T02:39:57;92821.50;;;7.50;nan
6345;BME280;3205;42.666;23.264;2023-04-04T02:42:23;92831.34;;;7.53;nan
6345;BME280;3205;42.666;23.264;2023-04-04T02:44:50;92815.44;;;7.46;nan
6345;BME280;3205;42.666;23.264;2023-04-04T02:47:16;92810.66;;;7.52;nan
6345;BME280;3205;42.666;23.264;2023-04-04T02:49:43;92810.31;;;7.53;nan
6345;BME280;3205;42.666;23.264;2023-04-04T02:52:09;92804.28;;;7.53;nan
6345;BME280;3205;42.666;23.264;2023-04-04T02:54:35;92811.84;;;7.54;nan
6345;BME280;3205;42.666;23.264;2023-04-04T02:57:01;92802.47;;;7.57;nan
6345;BME280;3205;42.666;23.264;2023-04-04T02:59:29;92815.50;;;7.50;nan
6345;BME280;3205;42.666;23.264;2023-04-04T03:01:55;92813.34;;;7.55;nan
6345;BME280;3205;42.666;23.264;2023-04-04T03:04:21;92818.00;;;7.65;nan
6345;BME280;3205;42.666;23.264;2023-04-04T03:06:48;92823.81;;;7.74;nan
6345;BME280;3205;42.666;23.264;2023-04-04T03:09:14;92819.59;;;7.70;nan
6345;BME280;3205;42.666;23.264;2023-04-04T03:11:40;92817.31;;;7.68;nan
6345;BME280;3205;42.666;23.264;2023-04-04T03:14:06;92819.22;;;7.71;nan
6345;BME280;3205;42.666;23.264;2023-04-04T03:16:32;92826.75;;;7.69;nan
6345;BME280;3205;42.666;23.264;2023-04-04T03:18:59;92822.28;;;7.73;nan
6345;BME280;3205;42.666;23.264;2023-04-04T03:21:25;92812.88;;;7.72;nan
6345;BME280;3205;42.666;23.264;2023-04-04T03:23:52;92818.25;;;7.79;nan
6345;BME280;3205;42.666;23.264;2023-04-04T03:26:18;92814.88;;;7.79;nan
6345;BME280;3205;42.666;23.264;2023-04-04T03:28:44;92849.09;;;7.82;nan
6345;BME280;3205;42.666;23.264;2023-04-04T03:31:10;92817.88;;;7.81;nan
6345;BME280;3205;42.666;23.264;2023-04-04T03:33:37;92823.56;;;7.83;nan
6345;BME280;3205;42.666;23.264;2023-04-04T03:36:09;92835.66;;;7.87;nan
6345;BME280;3205;42.666;23.264;2023-04-04T03:38:35;92822.69;;;7.75;nan
6345;BME280;3205;42.666;23.264;2023-04-04T03:41:02;92835.97;;;7.82;nan
6345;BME280;3205;42.666;23.264;2023-04-04T03:43:29;92821.28;;;7.81;nan
6345;BME280;3205;42.666;23.264;2023-04-04T03:45:58;92828.00;;;7.79;nan
6345;BME280;3205;42.666;23.264;2023-04-04T03:48:25;92826.38;;;7.71;nan
6345;BME280;3205;42.666;23.264;2023-04-04T03:50:51;92822.91;;;7.67;nan
6345;BME280;3205;42.666;23.264;2023-04-04T03:53:17;92818.84;;;7.69;nan
6345;BME280;3205;42.666;23.264;2023-04-04T03:55:44;92823.75;;;7.71;nan
6345;BME280;3205;42.666;23.264;2023-04-04T03:58:11;92824.16;;;7.73;nan
6345;BME280;3205;42.666;23.264;2023-04-04T04:00:37;92823.75;;;7.71;nan
6345;BME280;3205;42.666;23.264;2023-04-04T04:03:04;92828.59;;;7.69;nan
6345;BME280;3205;42.666;23.264;2023-04-04T04:05:30;92827.84;;;7.68;nan
6345;BME280;3205;42.666;23.264;2023-04-04T04:07:56;92823.38;;;7.72;nan
6345;BME280;3205;42.666;23.264;2023-04-04T04:10:23;92823.44;;;7.76;nan
6345;BME280;3205;42.666;23.264;2023-04-04T04:12:49;92819.00;;;7.80;nan
6345;BME280;3205;42.666;23.264;2023-04-04T04:15:15;92870.16;;;7.82;nan
6345;BME280;3205;42.666;23.264;2023-04-04T04:17:41;92877.25;;;7.82;nan
6345;BME280;3205;42.666;23.264;2023-04-04T04:20:08;92883.81;;;7.91;nan
6345;BME280;3205;42.666;23.264;2023-04-04T04:22:34;92869.19;;;7.94;nan
6345;BME280;3205;42.666;23.264;2023-04-04T04:25:01;92859.84;;;7.96;nan
6345;BME280;3205;42.666;23.264;2023-04-04T04:27:27;92871.97;;;8.04;nan
6345;BME280;3205;42.666;23.264;2023-04-04T04:29:54;92853.28;;;8.09;nan
6345;BME280;3205;42.666;23.264;2023-04-04T04:32:21;92857.16;;;8.15;nan
6345;BME280;3205;42.666;23.264;2023-04-04T04:34:47;92847.38;;;8.15;nan
6345;BME280;3205;42.666;23.264;2023-04-04T04:37:13;92861.00;;;8.21;nan
6345;BME280;3205;42.666;23.264;2023-04-04T04:39:39;92860.34;;;8.27;nan
6345;BME280;3205;42.666;23.264;2023-04-04T04:42:05;92858.47;;;8.28;nan
6345;BME280;3205;42.666;23.264;2023-04-04T04:44:31;92855.06;;;8.27;nan
6345;BME280;3205;42.666;23.264;2023-04-04T04:46:57;92869.53;;;8.37;nan
6345;BME280;3205;42.666;23.264;2023-04-04T04:49:24;92870.44;;;8.48;nan
6345;BME280;3205;42.666;23.264;2023-04-04T04:51:50;92857.72;;;8.53;nan
6345;BME280;3205;42.666;23.264;2023-04-04T04:54:17;92867.63;;;8.63;nan
6345;BME280;3205;42.666;23.264;2023-04-04T04:56:43;92864.34;;;8.70;nan
6345;BME280;3205;42.666;23.264;2023-04-04T04:59:09;92866.69;;;8.78;nan
6345;BME280;3205;42.666;23.264;2023-04-04T05:01:35;92871.00;;;8.89;nan
6345;BME280;3205;42.666;23.264;2023-04-04T05:04:01;92859.28;;;9.92;nan
6345;BME280;3205;42.666;23.264;2023-04-04T05:06:28;92853.13;;;10.78;nan
6345;BME280;3205;42.666;23.264;2023-04-04T05:08:54;92857.06;;;11.12;nan
6345;BME280;3205;42.666;23.264;2023-04-04T05:11:20;92859.38;;;11.31;nan
6345;BME280;3205;42.666;23.264;2023-04-04T05:13:46;92867.75;;;11.40;nan
6345;BME280;3205;42.666;23.264;2023-04-04T05:16:13;92877.59;;;11.50;nan
6345;BME280;3205;42.666;23.264;2023-04-04T05:18:39;92878.81;;;11.63;nan
6345;BME280;3205;42.666;23.264;2023-04-04T05:21:05;92888.66;;;11.80;nan
6345;BME280;3205;42.666;23.264;2023-04-04T05:23:32;92899.31;;;12.04;nan
6345;BME280;3205;42.666;23.264;2023-04-04T05:25:58;92895.91;;;12.28;nan
6345;BME280;3205;42.666;23.264;2023-04-04T05:28:24;92904.25;;;12.64;nan
6345;BME280;3205;42.666;23.264;2023-04-04T05:30:51;92899.28;;;13.12;nan
6345;BME280;3205;42.666;23.264;2023-04-04T05:33:18;92901.81;;;13.39;nan
6345;BME280;3205;42.666;23.264;2023-04-04T05:35:44;92907.41;;;13.66;nan
6345;BME280;3205;42.666;23.264;2023-04-04T05:38:10;92906.22;;;13.81;nan
6345;BME280;3205;42.666;23.264;2023-04-04T05:40:37;92928.06;;;14.06;nan
6345;BME280;3205;42.666;23.264;2023-04-04T05:43:03;92937.03;;;14.36;nan
6345;BME280;3205;42.666;23.264;2023-04-04T05:45:29;92930.22;;;14.82;nan
6345;BME280;3205;42.666;23.264;2023-04-04T05:47:56;92938.81;;;14.96;nan
6345;BME280;3205;42.666;23.264;2023-04-04T05:50:22;92942.03;;;14.78;nan
6345;BME280;3205;42.666;23.264;2023-04-04T05:52:48;92943.59;;;15.89;nan
6345;BME280;3205;42.666;23.264;2023-04-04T05:55:14;92904.34;;;18.14;nan
6345;BME280;3205;42.666;23.264;2023-04-04T05:57:46;92897.63;;;20.47;nan
6345;BME280;3205;42.666;23.264;2023-04-04T06:00:14;92895.13;;;21.82;nan
6345;BME280;3205;42.666;23.264;2023-04-04T06:02:41;92960.16;;;22.75;nan
6345;BME280;3205;42.666;23.264;2023-04-04T06:05:08;92975.91;;;23.64;nan
6345;BME280;3205;42.666;23.264;2023-04-04T06:07:34;92997.81;;;22.87;nan
6345;BME280;3205;42.666;23.264;2023-04-04T06:10:00;93024.13;;;22.19;nan
6345;BME280;3205;42.666;23.264;2023-04-04T06:12:26;93027.50;;;21.77;nan
6345;BME280;3205;42.666;23.264;2023-04-04T06:14:53;93024.94;;;21.61;nan
6345;BME280;3205;42.666;23.264;2023-04-04T06:17:19;93047.03;;;19.97;nan
6345;BME280;3205;42.666;23.264;2023-04-04T06:19:45;93048.53;;;18.28;nan
6345;BME280;3205;42.666;23.264;2023-04-04T06:22:11;93043.69;;;17.09;nan
6345;BME280;3205;42.666;23.264;2023-04-04T06:24:37;93046.56;;;16.69;nan
6345;BME280;3205;42.666;23.264;2023-04-04T06:27:03;93046.25;;;16.34;nan
6345;BME280;3205;42.666;23.264;2023-04-04T06:29:31;93044.38;;;15.60;nan
6345;BME280;3205;42.666;23.264;2023-04-04T06:31:58;93041.28;;;14.71;nan
6345;BME280;3205;42.666;23.264;2023-04-04T06:34:25;93054.56;;;13.68;nan
6345;BME280;3205;42.666;23.264;2023-04-04T06:36:51;93052.31;;;12.87;nan
6345;BME280;3205;42.666;23.264;2023-04-04T06:39:17;93052.59;;;12.33;nan
6345;BME280;3205;42.666;23.264;2023-04-04T06:41:43;93054.66;;;11.76;nan
6345;BME280;3205;42.666;23.264;2023-04-04T06:44:09;93053.06;;;11.57;nan
6345;BME280;3205;42.666;23.264;2023-04-04T06:46:36;93057.25;;;11.08;nan
6345;BME280;3205;42.666;23.264;2023-04-04T06:49:02;93059.22;;;10.75;nan
6345;BME280;3205;42.666;23.264;2023-04-04T06:51:29;93056.63;;;10.78;nan
6345;BME280;3205;42.666;23.264;2023-04-04T06:53:56;93071.88;;;10.55;nan
6345;BME280;3205;42.666;23.264;2023-04-04T06:56:22;93061.69;;;10.18;nan
6345;BME280;3205;42.666;23.264;2023-04-04T06:58:48;93063.16;;;10.15;nan
6345;BME280;3205;42.666;23.264;2023-04-04T07:01:15;93071.50;;;9.91;nan
6345;BME280;3205;42.666;23.264;2023-04-04T07:03:41;93070.81;;;9.65;nan
6345;BME280;3205;42.666;23.264;2023-04-04T07:06:09;93076.19;;;9.72;nan
6345;BME280;3205;42.666;23.264;2023-04-04T07:08:35;93089.19;;;9.58;nan
6345;BME280;3205;42.666;23.264;2023-04-04T07:11:02;93096.44;;;9.39;nan
6345;BME280;3205;42.666;23.264;2023-04-04T07:13:28;93111.53;;;9.38;nan
6345;BME280;3205;42.666;23.264;2023-04-04T07:15:54;93116.31;;;9.33;nan
6345;BME280;3205;42.666;23.264;2023-04-04T07:18:20;93123.50;;;9.10;nan
6345;BME280;3205;42.666;23.264;2023-04-04T07:20:46;93127.72;;;9.14;nan
6345;BME280;3205;42.666;23.264;2023-04-04T07:23:13;93135.16;;;9.09;nan
6345;BME280;3205;42.666;23.264;2023-04-04T07:25:40;93133.47;;;9.20;nan
6345;BME280;3205;42.666;23.264;2023-04-04T07:28:06;93150.31;;;9.15;nan
6345;BME280;3205;42.666;23.264;2023-04-04T07:30:32;93155.00;;;9.03;nan
6345;BME280;3205;42.666;23.264;2023-04-04T07:32:59;93161.75;;;9.00;nan
6345;BME280;3205;42.666;23.264;2023-04-04T07:35:25;93168.00;;;8.92;nan
6345;BME280;3205;42.666;23.264;2023-04-04T07:37:51;93169.94;;;8.95;nan
6345;BME280;3205;42.666;23.264;2023-04-04T07:40:18;93175.91;;;8.92;nan
6345;BME280;3205;42.666;23.264;2023-04-04T07:42:45;93173.69;;;8.72;nan
6345;BME280;3205;42.666;23.264;2023-04-04T07:45:12;93184.63;;;8.74;nan
6345;BME280;3205;42.666;23.264;2023-04-04T07:47:41;93195.25;;;8.78;nan
6345;BME280;3205;42.666;23.264;2023-04-04T07:50:08;93197.81;;;8.74;nan
6345;BME280;3205;42.666;23.264;2023-04-04T07:52:35;93200.91;;;8.80;nan
6345;BME280;3205;42.666;23.264;2023-04-04T07:55:01;93205.66;;;8.71;nan
6345;BME280;3205;42.666;23.264;2023-04-04T07:57:28;93201.69;;;8.61;nan
6345;BME280;3205;42.666;23.264;2023-04-04T07:59:55;93210.78;;;8.64;nan
6345;BME280;3205;42.666;23.264;2023-04-04T08:02:21;93215.41;;;8.51;nan
6345;BME280;3205;42.666;23.264;2023-04-04T08:04:47;93215.50;;;8.36;nan
6345;BME280;3205;42.666;23.264;2023-04-04T08:07:14;93211.47;;;8.42;nan
6345;BME280;3205;42.666;23.264;2023-04-04T08:09:40;93236.56;;;8.36;nan
6345;BME280;3205;42.666;23.264;2023-04-04T08:12:06;93236.00;;;8.46;nan
6345;BME280;3205;42.666;23.264;2023-04-04T08:14:33;93243.34;;;8.56;nan
6345;BME280;3205;42.666;23.264;2023-04-04T08:16:59;93244.59;;;8.08;nan
6345;BME280;3205;42.666;23.264;2023-04-04T08:19:26;93254.19;;;8.16;nan
6345;BME280;3205;42.666;23.264;2023-04-04T08:21:52;93259.31;;;8.28;nan
6345;BME280;3205;42.666;23.264;2023-04-04T08:24:19;93260.06;;;8.10;nan
6345;BME280;3205;42.666;23.264;2023-04-04T08:26:46;93268.88;;;8.02;nan
6345;BME280;3205;42.666;23.264;2023-04-04T08:29:12;93275.59;;;7.84;nan
6345;BME280;3205;42.666;23.264;2023-04-04T08:31:39;93278.47;;;7.95;nan
6345;BME280;3205;42.666;23.264;2023-04-04T08:34:05;93285.88;;;7.89;nan
6345;BME280;3205;42.666;23.264;2023-04-04T08:36:32;93292.44;;;7.80;nan
6345;BME280;3205;42.666;23.264;2023-04-04T08:38:59;93286.47;;;7.83;nan
6345;BME280;3205;42.666;23.264;2023-04-04T08:41:26;93274.97;;;8.06;nan
6345;BME280;3205;42.666;23.264;2023-04-04T08:43:52;93279.00;;;8.00;nan
6345;BME280;3205;42.666;23.264;2023-04-04T08:46:20;93271.75;;;8.12;nan
6345;BME280;3205;42.666;23.264;2023-04-04T08:48:49;93277.47;;;7.99;nan
6345;BME280;3205;42.666;23.264;2023-04-04T08:51:16;93288.69;;;7.96;nan
6345;BME280;3205;42.666;23.264;2023-04-04T08:53:44;93285.03;;;7.85;nan
6345;BME280;3205;42.666;23.264;2023-04-04T08:56:11;93276.03;;;7.86;nan
6345;BME280;3205;42.666;23.264;2023-04-04T08:58:38;93296.47;;;7.77;nan
6345;BME280;3205;42.666;23.264;2023-04-04T09:01:05;93296.72;;;7.88;nan
6345;BME280;3205;42.666;23.264;2023-04-04T09:03:32;93300.88;;;7.89;nan
6345;BME280;3205;42.666;23.264;2023-04-04T09:06:00;93305.53;;;8.10;nan
6345;BME280;3205;42.666;23.264;2023-04-04T09:08:27;93306.16;;;8.19;nan
6345;BME280;3205;42.666;23.264;2023-04-04T09:10:53;93310.50;;;8.46;nan
6345;BME280;3205;42.666;23.264;2023-04-04T09:13:20;93311.59;;;8.45;nan
6345;BME280;3205;42.666;23.264;2023-04-04T09:15:49;93311.53;;;8.42;nan
6345;BME280;3205;42.666;23.264;2023-04-04T09:18:15;93312.47;;;8.34;nan
6345;BME280;3205;42.666;23.264;2023-04-04T09:20:43;93312.13;;;8.70;nan
6345;BME280;3205;42.666;23.264;2023-04-04T09:23:11;93315.44;;;8.67;nan
6345;BME280;3205;42.666;23.264;2023-04-04T09:25:44;93325.53;;;8.65;nan
6345;BME280;3205;42.666;23.264;2023-04-04T09:28:13;93320.31;;;8.49;nan
6345;BME280;3205;42.666;23.264;2023-04-04T09:30:39;93325.75;;;8.56;nan
6345;BME280;3205;42.666;23.264;2023-04-04T09:33:06;93340.34;;;8.35;nan
6345;BME280;3205;42.666;23.264;2023-04-04T09:35:36;93337.84;;;8.42;nan
6345;BME280;3205;42.666;23.264;2023-04-04T09:38:02;93331.41;;;8.39;nan
6345;BME280;3205;42.666;23.264;2023-04-04T09:40:29;93335.81;;;8.35;nan
6345;BME280;3205;42.666;23.264;2023-04-04T09:42:59;93343.56;;;8.28;nan
6345;BME280;3205;42.666;23.264;2023-04-04T09:45:25;93339.06;;;8.13;nan
6345;BME280;3205;42.666;23.264;2023-04-04T09:47:52;93339.25;;;7.90;nan
6345;BME280;3205;42.666;23.264;2023-04-04T09:50:21;93340.72;;;7.72;nan
6345;BME280;3205;42.666;23.264;2023-04-04T09:52:48;93339.31;;;7.47;nan
6345;BME280;3205;42.666;23.264;2023-04-04T09:55:14;93337.84;;;7.34;nan
6345;BME280;3205;42.666;23.264;2023-04-04T09:57:41;93341.44;;;7.41;nan
6345;BME280;3205;42.666;23.264;2023-04-04T10:00:08;93351.81;;;7.50;nan
6345;BME280;3205;42.666;23.264;2023-04-04T10:02:38;93340.09;;;7.78;nan
6345;BME280;3205;42.666;23.264;2023-04-04T10:05:08;93346.22;;;7.98;nan
6345;BME280;3205;42.666;23.264;2023-04-04T10:07:38;93348.19;;;8.16;nan
6345;BME280;3205;42.666;23.264;2023-04-04T10:10:05;93343.72;;;8.70;nan
6345;BME280;3205;42.666;23.264;2023-04-04T10:12:32;93361.56;;;8.95;nan
6345;BME280;3205;42.666;23.264;2023-04-04T10:14:59;93366.19;;;9.20;nan
6345;BME280;3205;42.666;23.264;2023-04-04T10:17:29;93361.34;;;9.63;nan
6345;BME280;3205;42.666;23.264;2023-04-04T10:19:56;93365.19;;;9.88;nan
6345;BME280;3205;42.666;23.264;2023-04-04T10:22:25;93365.81;;;9.82;nan
6345;BME280;3205;42.666;23.264;2023-04-04T10:24:51;93376.78;;;10.03;nan
6345;BME280;3205;42.666;23.264;2023-04-04T10:27:18;93372.31;;;10.29;nan
6345;BME280;3205;42.666;23.264;2023-04-04T10:29:45;93384.31;;;10.49;nan
6345;BME280;3205;42.666;23.264;2023-04-04T10:32:16;93389.31;;;10.32;nan
6345;BME280;3205;42.666;23.264;2023-04-04T10:34:54;93389.66;;;10.08;nan
6345;BME280;3205;42.666;23.264;2023-04-04T10:37:25;93407.22;;;9.56;nan
6345;BME280;3205;42.666;23.264;2023-04-04T10:39:58;93409.47;;;9.57;nan
6345;BME280;3205;42.666;23.264;2023-04-04T10:42:28;93420.25;;;9.49;nan
6345;BME280;3205;42.666;23.264;2023-04-04T10:44:58;93416.56;;;9.53;nan
6345;BME280;3205;42.666;23.264;2023-04-04T10:47:27;93425.38;;;9.60;nan
6345;BME280;3205;42.666;23.264;2023-04-04T10:49:55;93414.91;;;9.26;nan
6345;BME280;3205;42.666;23.264;2023-04-04T10:52:22;93424.56;;;9.38;nan
6345;BME280;3205;42.666;23.264;2023-04-04T10:54:50;93426.81;;;9.39;nan
6345;BME280;3205;42.666;23.264;2023-04-04T10:57:17;93434.28;;;9.34;nan
6345;BME280;3205;42.666;23.264;2023-04-04T10:59:57;93441.09;;;9.35;nan
6345;BME280;3205;42.666;23.264;2023-04-04T11:02:47;93443.06;;;9.22;nan
6345;BME280;3205;42.666;23.264;2023-04-04T11:05:18;93432.09;;;9.01;nan
6345;BME280;3205;42.666;23.264;2023-04-04T11:07:45;93432.22;;;8.89;nan
6345;BME280;3205;42.666;23.264;2023-04-04T11:10:13;93434.06;;;8.89;nan
6345;BME280;3205;42.666;23.264;2023-04-04T11:12:44;93433.69;;;8.87;nan
6345;BME280;3205;42.666;23.264;2023-04-04T11:15:11;93433.69;;;8.72;nan
6345;BME280;3205;42.666;23.264;2023-04-04T11:17:58;93447.84;;;8.64;nan
6345;BME280;3205;42.666;23.264;2023-04-04T11:20:29;93450.22;;;8.53;nan
6345;BME280;3205;42.666;23.264;2023-04-04T11:23:08;93455.66;;;8.29;nan
6345;BME280;3205;42.666;23.264;2023-04-04T11:25:39;93453.88;;;8.18;nan
6345;BME280;3205;42.666;23.264;2023-04-04T11:28:12;93462.19;;;8.20;nan
6345;BME280;3205;42.666;23.264;2023-04-04T11:30:41;93464.44;;;7.91;nan
6345;BME280;3205;42.666;23.264;2023-04-04T11:33:24;93454.34;;;8.08;nan
6345;BME280;3205;42.666;23.264;2023-04-04T11:35:52;93462.59;;;8.07;nan
6345;BME280;3205;42.666;23.264;2023-04-04T11:38:19;93451.66;;;8.20;nan
6345;BME280;3205;42.666;23.264;2023-04-04T11:40:52;93464.00;;;8.16;nan
6345;BME280;3205;42.666;23.264;2023-04-04T11:43:19;93465.06;;;8.00;nan
6345;BME280;3205;42.666;23.264;2023-04-04T11:45:46;93459.59;;;7.93;nan
6345;BME280;3205;42.666;23.264;2023-04-04T11:48:15;93459.25;;;7.94;nan
6345;BME280;3205;42.666;23.264;2023-04-04T11:50:42;93464.88;;;8.08;nan
6345;BME280;3205;42.666;23.264;2023-04-04T11:53:11;93458.81;;;8.19;nan
6345;BME280;3205;42.666;23.264;2023-04-04T11:55:38;93468.81;;;8.29;nan
6345;BME280;3205;42.666;23.264;2023-04-04T11:58:10;93469.00;;;8.36;nan
6345;BME280;3205;42.666;23.264;2023-04-04T12:00:37;93463.72;;;8.36;nan
6345;BME280;3205;42.666;23.264;2023-04-04T12:03:05;93465.84;;;8.46;nan
6345;BME280;3205;42.666;23.264;2023-04-04T12:05:33;93464.50;;;8.37;nan
6345;BME280;3205;42.666;23.264;2023-04-04T12:08:00;93467.38;;;8.32;nan
6345;BME280;3205;42.666;23.264;2023-04-04T12:10:28;93463.78;;;8.09;nan
6345;BME280;3205;42.666;23.264;2023-04-04T12:12:57;93465.81;;;8.00;nan
6345;BME280;3205;42.666;23.264;2023-04-04T12:15:24;93468.59;;;7.92;nan
6345;BME280;3205;42.666;23.264;2023-04-04T12:17:52;93472.94;;;7.57;nan
6345;BME280;3205;42.666;23.264;2023-04-04T12:20:21;93472.78;;;7.65;nan
6345;BME280;3205;42.666;23.264;2023-04-04T12:22:48;93465.97;;;7.64;nan
6345;BME280;3205;42.666;23.264;2023-04-04T12:25:15;93469.84;;;7.55;nan
6345;BME280;3205;42.666;23.264;2023-04-04T12:27:41;93476.00;;;7.59;nan
6345;BME280;3205;42.666;23.264;2023-04-04T12:30:09;93474.75;;;7.68;nan
6345;BME280;3205;42.666;23.264;2023-04-04T12:32:40;93468.41;;;7.57;nan
6345;BME280;3205;42.666;23.264;2023-04-04T12:35:09;93480.13;;;7.60;nan
6345;BME280;3205;42.666;23.264;2023-04-04T12:37:35;93473.88;;;7.37;nan
6345;BME280;3205;42.666;23.264;2023-04-04T12:40:03;93477.66;;;7.12;nan
6345;BME280;3205;42.666;23.264;2023-04-04T12:42:30;93474.28;;;7.12;nan
6345;BME280;3205;42.666;23.264;2023-04-04T12:44:57;93480.19;;;7.09;nan
6345;BME280;3205;42.666;23.264;2023-04-04T12:47:23;93475.31;;;6.83;nan
6345;BME280;3205;42.666;23.264;2023-04-04T12:49:52;93488.13;;;6.73;nan
6345;BME280;3205;42.666;23.264;2023-04-04T12:52:20;93479.38;;;6.81;nan
6345;BME280;3205;42.666;23.264;2023-04-04T12:54:49;93474.56;;;6.71;nan
6345;BME280;3205;42.666;23.264;2023-04-04T12:57:18;93475.56;;;6.66;nan
6345;BME280;3205;42.666;23.264;2023-04-04T12:59:45;93489.78;;;6.65;nan
6345;BME280;3205;42.666;23.264;2023-04-04T13:02:13;93477.00;;;6.52;nan
6345;BME280;3205;42.666;23.264;2023-04-04T13:04:44;93485.19;;;6.39;nan
6345;BME280;3205;42.666;23.264;2023-04-04T13:07:20;93483.88;;;6.33;nan
6345;BME280;3205;42.666;23.264;2023-04-04T13:09:50;93486.72;;;6.40;nan
6345;BME280;3205;42.666;23.264;2023-04-04T13:12:18;93493.16;;;6.30;nan
6345;BME280;3205;42.666;23.264;2023-04-04T13:14:57;93501.78;;;6.19;nan
6345;BME280;3205;42.666;23.264;2023-04-04T13:17:24;93494.97;;;6.06;nan
6345;BME280;3205;42.666;23.264;2023-04-04T13:19:50;93501.84;;;5.87;nan
6345;BME280;3205;42.666;23.264;2023-04-04T13:22:17;93495.75;;;5.74;nan
6345;BME280;3205;42.666;23.264;2023-04-04T13:24:43;93510.09;;;5.56;nan
6345;BME280;3205;42.666;23.264;2023-04-04T13:27:09;93504.19;;;5.47;nan
6345;BME280;3205;42.666;23.264;2023-04-04T13:29:36;93500.72;;;5.35;nan
6345;BME280;3205;42.666;23.264;2023-04-04T13:32:02;93502.91;;;5.33;nan
6345;BME280;3205;42.666;23.264;2023-04-04T13:34:29;93498.91;;;5.35;nan
6345;BME280;3205;42.666;23.264;2023-04-04T13:36:55;93496.19;;;5.44;nan